createdAt,value
2023-11-24T06:00:43.289Z,0.00
2023-11-24T06:01:43.357Z,0.00
2023-11-24T06:02:43.206Z,0.00
2023-11-24T06:03:43.248Z,0.00
2023-11-24T06:04:43.485Z,0.00
2023-11-24T06:05:43.224Z,0.00
2023-11-24T06:06:43.191Z,0.00
2023-11-24T06:07:43.148Z,0.00
2023-11-24T06:08:43.144Z,0.00
2023-11-24T06:09:43.160Z,0.00
2023-11-24T06:10:43.152Z,0.00
2023-11-24T06:11:48.138Z,0.00
2023-11-24T06:12:43.115Z,0.00
2023-11-24T06:13:43.081Z,0.00
2023-11-24T06:14:43.091Z,0.00
2023-11-24T06:15:43.072Z,0.00
2023-11-24T06:16:43.126Z,0.00
2023-11-24T06:17:43.090Z,0.00
2023-11-24T06:18:43.058Z,0.00
2023-11-24T06:19:43.020Z,0.00
2023-11-24T06:20:43.018Z,4.00
2023-11-24T06:21:43.053Z,4.00
2023-11-24T06:22:47.998Z,4.00
2023-11-24T06:23:42.960Z,4.00
2023-11-24T06:24:42.993Z,4.00
2023-11-24T06:25:42.987Z,8.00
2023-11-24T06:26:42.972Z,4.00
2023-11-24T06:27:42.948Z,4.00
2023-11-24T06:28:42.907Z,8.00
2023-11-24T06:29:42.907Z,12.00
2023-11-24T06:30:42.911Z,12.00
2023-11-24T06:31:42.878Z,12.00
2023-11-24T06:32:42.918Z,12.00
2023-11-24T06:33:47.972Z,20.00
2023-11-24T06:34:42.921Z,20.00
2023-11-24T06:35:42.833Z,24.00
2023-11-24T06:36:42.841Z,28.00
2023-11-24T06:37:42.817Z,28.00
2023-11-24T06:38:42.842Z,32.00
2023-11-24T06:39:42.840Z,40.00
2023-11-24T06:40:42.776Z,48.00
2023-11-24T06:41:42.774Z,52.00
2023-11-24T06:42:42.875Z,56.00
2023-11-24T06:43:42.756Z,56.00
2023-11-24T06:44:47.788Z,60.00
2023-11-24T06:45:42.749Z,64.00
2023-11-24T06:46:42.738Z,68.00
2023-11-24T06:47:42.802Z,72.00
2023-11-24T06:48:42.755Z,72.00
2023-11-24T06:49:42.678Z,72.00
2023-11-24T06:50:42.711Z,76.00
2023-11-24T06:51:42.666Z,88.00
2023-11-24T06:52:42.774Z,104.00
2023-11-24T06:53:42.637Z,116.00
2023-11-24T06:54:42.645Z,116.00
2023-11-24T06:55:47.630Z,124.00
2023-11-24T06:56:42.613Z,124.00
2023-11-24T06:57:42.601Z,136.00
2023-11-24T06:58:42.589Z,140.00
2023-11-24T06:59:42.584Z,148.00
2023-11-24T07:00:42.682Z,148.00
2023-11-24T07:01:42.728Z,132.00
2023-11-24T07:02:42.585Z,140.00
2023-11-24T07:03:42.607Z,152.00
2023-11-24T07:04:42.532Z,164.00
2023-11-24T07:05:42.497Z,184.00
2023-11-24T07:06:47.575Z,192.00
2023-11-24T07:07:42.499Z,208.00
2023-11-24T07:08:42.484Z,240.00
2023-11-24T07:09:42.464Z,264.00
2023-11-24T07:10:42.490Z,284.00
2023-11-24T07:11:42.430Z,272.00
2023-11-24T07:12:42.466Z,268.00
2023-11-24T07:13:42.417Z,292.00
2023-11-24T07:14:42.417Z,332.00
2023-11-24T07:15:42.395Z,340.00
2023-11-24T07:16:42.493Z,308.00
2023-11-24T07:17:47.519Z,260.00
2023-11-24T07:18:42.435Z,252.00
2023-11-24T07:19:42.402Z,272.00
2023-11-24T07:20:42.351Z,248.00
2023-11-24T07:21:42.342Z,232.00
2023-11-24T07:22:42.305Z,240.00
2023-11-24T07:23:42.300Z,232.00
2023-11-24T07:24:42.295Z,268.00
2023-11-24T07:25:42.271Z,244.00
2023-11-24T07:26:42.296Z,228.00
2023-11-24T07:27:42.266Z,240.00
2023-11-24T07:28:47.278Z,240.00
2023-11-24T07:29:42.227Z,300.00
2023-11-24T07:30:42.221Z,308.00
2023-11-24T07:31:42.216Z,364.00
2023-11-24T07:32:42.275Z,480.00
2023-11-24T07:33:42.199Z,592.00
2023-11-24T07:34:42.232Z,696.00
2023-11-24T07:35:42.197Z,752.00
2023-11-24T07:36:42.272Z,912.00
2023-11-24T07:37:42.142Z,1184.00
2023-11-24T07:38:42.147Z,1232.00
2023-11-24T07:39:47.151Z,1304.00
2023-11-24T07:40:42.115Z,1288.00
2023-11-24T07:41:42.099Z,1272.00
2023-11-24T07:42:42.101Z,1332.00
2023-11-24T07:43:42.077Z,1212.00
2023-11-24T07:44:42.079Z,1060.00
2023-11-24T07:45:42.131Z,1012.00
2023-11-24T07:46:42.078Z,1028.00
2023-11-24T07:47:42.053Z,1176.00
2023-11-24T07:48:42.044Z,1176.00
2023-11-24T07:49:42.011Z,1108.00
2023-11-24T07:50:47.079Z,1136.00
2023-11-24T07:51:42.058Z,1116.00
2023-11-24T07:52:42.017Z,1244.00
2023-11-24T07:53:41.960Z,1220.00
2023-11-24T07:54:42.069Z,1388.00
2023-11-24T07:55:41.973Z,1640.00
2023-11-24T07:56:41.934Z,1940.00
2023-11-24T07:57:41.980Z,2004.00
2023-11-24T07:58:41.913Z,1892.00
2023-11-24T07:59:41.903Z,1752.00
2023-11-24T08:00:41.918Z,1684.00
2023-11-24T08:01:46.928Z,1504.00
2023-11-24T08:02:42.031Z,1644.00
2023-11-24T08:03:41.899Z,1360.00
2023-11-24T08:04:41.966Z,1572.00
2023-11-24T08:05:41.836Z,1312.00
2023-11-24T08:06:44.974Z,1180.00
2023-11-24T08:07:41.802Z,1124.00
2023-11-24T08:08:41.826Z,1180.00
2023-11-24T08:09:41.822Z,1620.00
2023-11-24T08:10:41.772Z,1704.00
2023-11-24T08:11:41.761Z,2164.00
2023-11-24T08:12:46.808Z,1820.00
2023-11-24T08:13:41.744Z,1720.00
2023-11-24T08:14:41.753Z,1916.00
2023-11-24T08:15:41.817Z,2052.00
2023-11-24T08:16:41.746Z,2008.00
2023-11-24T08:17:41.736Z,2300.00
2023-11-24T08:18:41.693Z,2336.00
2023-11-24T08:19:41.687Z,2320.00
2023-11-24T08:20:41.698Z,2372.00
2023-11-24T08:21:41.693Z,2508.00
2023-11-24T08:22:41.648Z,2500.00
2023-11-24T08:23:46.678Z,3204.00
2023-11-24T08:24:41.654Z,3160.00
2023-11-24T08:25:41.604Z,2872.00
2023-11-24T08:26:41.607Z,2328.00
2023-11-24T08:27:41.607Z,1692.00
2023-11-24T08:28:41.589Z,1420.00
2023-11-24T08:29:41.558Z,1468.00
2023-11-24T08:30:41.574Z,1444.00
2023-11-24T08:31:41.550Z,1680.00
2023-11-24T08:32:45.357Z,1752.00
2023-11-24T08:33:41.547Z,1472.00
2023-11-24T08:34:46.545Z,1324.00
2023-11-24T08:35:41.500Z,1268.00
2023-11-24T08:36:41.589Z,1384.00
2023-11-24T08:37:41.469Z,1480.00
2023-11-24T08:38:41.504Z,1496.00
2023-11-24T08:39:41.504Z,1580.00
2023-11-24T08:40:41.437Z,1980.00
2023-11-24T08:41:41.426Z,2164.00
2023-11-24T08:42:41.487Z,1824.00
2023-11-24T08:43:41.427Z,1424.00
2023-11-24T08:44:41.423Z,1168.00
2023-11-24T08:45:46.443Z,1032.00
2023-11-24T08:46:41.455Z,912.00
2023-11-24T08:47:41.385Z,808.00
2023-11-24T08:48:41.409Z,1016.00
2023-11-24T08:49:41.341Z,1368.00
2023-11-24T08:50:41.338Z,1488.00
2023-11-24T08:51:41.379Z,1272.00
2023-11-24T08:52:41.338Z,1120.00
2023-11-24T08:53:41.302Z,1244.00
2023-11-24T08:54:41.364Z,1264.00
2023-11-24T08:55:41.295Z,1188.00
2023-11-24T08:56:46.344Z,1032.00
2023-11-24T08:57:41.270Z,1132.00
2023-11-24T08:58:41.241Z,1456.00
2023-11-24T08:59:41.233Z,1656.00
2023-11-24T09:00:41.235Z,1560.00
2023-11-24T09:01:41.303Z,1360.00
2023-11-24T09:02:41.324Z,1428.00
2023-11-24T09:03:41.321Z,1564.00
2023-11-24T09:04:41.259Z,1812.00
2023-11-24T09:05:41.165Z,2336.00
2023-11-24T09:06:41.212Z,2284.00
2023-11-24T09:07:46.175Z,2048.00
2023-11-24T09:08:41.138Z,2124.00
2023-11-24T09:09:41.135Z,1584.00
2023-11-24T09:10:41.102Z,1276.00
2023-11-24T09:11:41.134Z,1356.00
2023-11-24T09:12:41.109Z,1372.00
2023-11-24T09:13:41.069Z,1420.00
2023-11-24T09:14:41.119Z,1716.00
2023-11-24T09:15:41.080Z,2080.00
2023-11-24T09:16:41.059Z,1908.00
2023-11-24T09:17:41.035Z,1276.00
2023-11-24T09:18:46.087Z,1076.00
2023-11-24T09:19:41.016Z,832.00
2023-11-24T09:20:40.998Z,792.00
2023-11-24T09:21:41.034Z,876.00
2023-11-24T09:22:40.966Z,944.00
2023-11-24T09:23:40.966Z,1136.00
2023-11-24T09:24:40.984Z,1908.00
2023-11-24T09:25:40.933Z,2448.00
2023-11-24T09:26:40.945Z,2680.00
2023-11-24T09:27:40.948Z,3528.00
2023-11-24T09:28:40.920Z,3664.00
2023-11-24T09:29:45.921Z,2684.00
2023-11-24T09:30:41.009Z,2692.00
2023-11-24T09:31:40.958Z,3268.00
2023-11-24T09:32:40.905Z,4188.00
2023-11-24T09:33:40.936Z,5376.00
2023-11-24T09:34:40.915Z,6468.00
2023-11-24T09:35:40.839Z,5524.00
2023-11-24T09:36:40.849Z,5828.00
2023-11-24T09:37:40.816Z,5536.00
2023-11-24T09:38:40.825Z,5048.00
2023-11-24T09:39:40.808Z,4332.00
2023-11-24T09:40:45.936Z,5080.00
2023-11-24T09:41:40.792Z,3888.00
2023-11-24T09:42:40.758Z,3932.00
2023-11-24T09:43:40.772Z,5128.00
2023-11-24T09:44:40.765Z,4884.00
2023-11-24T09:45:40.785Z,4388.00
2023-11-24T09:46:49.068Z,5580.00
2023-11-24T09:47:40.937Z,4676.00
2023-11-24T09:48:40.710Z,3460.00
2023-11-24T09:49:40.675Z,3352.00
2023-11-24T09:50:40.708Z,3564.00
2023-11-24T09:51:45.694Z,2928.00
2023-11-24T09:52:40.633Z,2808.00
2023-11-24T09:53:40.623Z,3416.00
2023-11-24T09:54:40.663Z,3184.00
2023-11-24T09:55:40.610Z,3820.00
2023-11-24T09:56:40.609Z,4368.00
2023-11-24T09:57:40.593Z,4412.00
2023-11-24T09:58:40.575Z,3496.00
2023-11-24T09:59:40.591Z,4144.00
2023-11-24T10:00:40.581Z,4180.00
2023-11-24T10:01:40.729Z,4632.00
2023-11-24T10:02:45.737Z,5108.00
2023-11-24T10:03:40.654Z,3928.00
2023-11-24T10:04:40.566Z,3732.00
2023-11-24T10:05:40.513Z,3612.00
2023-11-24T10:06:41.003Z,3444.00
2023-11-24T10:07:40.468Z,3484.00
2023-11-24T10:08:40.476Z,3592.00
2023-11-24T10:09:40.477Z,3500.00
2023-11-24T10:10:40.435Z,4564.00
2023-11-24T10:11:43.045Z,4608.00
2023-11-24T10:12:40.470Z,3828.00
2023-11-24T10:13:46.630Z,2756.00
2023-11-24T10:14:40.453Z,2076.00
2023-11-24T10:15:40.438Z,2192.00
2023-11-24T10:16:40.367Z,2824.00
2023-11-24T10:17:40.397Z,2596.00
2023-11-24T10:18:40.482Z,1980.00
2023-11-24T10:19:40.349Z,1864.00
2023-11-24T10:20:40.331Z,2292.00
2023-11-24T10:21:40.394Z,2424.00
2023-11-24T10:22:40.302Z,2224.00
2023-11-24T10:23:40.298Z,1968.00
2023-11-24T10:24:45.314Z,1804.00
2023-11-24T10:25:40.281Z,1700.00
2023-11-24T10:26:40.253Z,1556.00
2023-11-24T10:27:40.278Z,1296.00
2023-11-24T10:28:40.241Z,1152.00
2023-11-24T10:29:40.227Z,1132.00
2023-11-24T10:30:40.300Z,1144.00
2023-11-24T10:31:40.238Z,1036.00
2023-11-24T10:32:40.225Z,1548.00
2023-11-24T10:33:40.349Z,2076.00
2023-11-24T10:34:40.227Z,2512.00
2023-11-24T10:35:45.181Z,4004.00
2023-11-24T10:36:40.156Z,6372.00
2023-11-24T10:37:40.146Z,5416.00
2023-11-24T10:38:40.181Z,5296.00
2023-11-24T10:39:40.231Z,5980.00
2023-11-24T10:40:40.108Z,5060.00
2023-11-24T10:41:40.108Z,5880.00
2023-11-24T10:42:40.155Z,4352.00
2023-11-24T10:43:40.068Z,3060.00
2023-11-24T10:44:40.054Z,2840.00
2023-11-24T10:45:40.128Z,1780.00
2023-11-24T10:46:45.331Z,2012.00
2023-11-24T10:47:40.081Z,2372.00
2023-11-24T10:48:40.044Z,2472.00
2023-11-24T10:49:40.008Z,2528.00
2023-11-24T10:50:39.986Z,2680.00
2023-11-24T10:51:40.029Z,3508.00
2023-11-24T10:52:39.975Z,3700.00
2023-11-24T10:53:39.991Z,3580.00
2023-11-24T10:54:40.121Z,2344.00
2023-11-24T10:55:39.947Z,2856.00
2023-11-24T10:56:40.708Z,3404.00
2023-11-24T10:57:45.036Z,4028.00
2023-11-24T10:58:39.900Z,5268.00
2023-11-24T10:59:40.175Z,5636.00
2023-11-24T11:00:40.002Z,7000.00
2023-11-24T11:01:40.046Z,6060.00
2023-11-24T11:02:39.940Z,4528.00
2023-11-24T11:03:39.981Z,4448.00
2023-11-24T11:04:39.844Z,5556.00
2023-11-24T11:05:39.846Z,5092.00
2023-11-24T11:06:39.936Z,4584.00
2023-11-24T11:07:39.813Z,4584.00
2023-11-24T11:08:44.845Z,5796.00
2023-11-24T11:09:39.825Z,5816.00
2023-11-24T11:10:39.819Z,4868.00
2023-11-24T11:11:39.768Z,4604.00
2023-11-24T11:12:39.757Z,3340.00
2023-11-24T11:13:39.732Z,2936.00
2023-11-24T11:14:39.717Z,3492.00
2023-11-24T11:15:39.788Z,3024.00
2023-11-24T11:16:39.747Z,4540.00
2023-11-24T11:17:40.067Z,6804.00
2023-11-24T11:18:39.732Z,3992.00
2023-11-24T11:19:44.691Z,7080.00
2023-11-24T11:20:39.662Z,8492.00
2023-11-24T11:21:39.693Z,5704.00
2023-11-24T11:22:39.640Z,5368.00
2023-11-24T11:23:39.628Z,4676.00
2023-11-24T11:24:39.640Z,4040.00
2023-11-24T11:25:39.835Z,3880.00
2023-11-24T11:26:39.636Z,3912.00
2023-11-24T11:27:39.666Z,4112.00
2023-11-24T11:28:39.563Z,4308.00
2023-11-24T11:29:39.564Z,4432.00
2023-11-24T11:30:44.585Z,4512.00
2023-11-24T11:31:39.970Z,4624.00
2023-11-24T11:32:39.542Z,4384.00
2023-11-24T11:33:39.527Z,4088.00
2023-11-24T11:34:39.653Z,3760.00
2023-11-24T11:35:39.490Z,3492.00
2023-11-24T11:36:39.546Z,3324.00
2023-11-24T11:37:39.471Z,3596.00
2023-11-24T11:38:39.459Z,4348.00
2023-11-24T11:39:39.607Z,4984.00
2023-11-24T11:40:39.461Z,5004.00
2023-11-24T11:41:44.446Z,4704.00
2023-11-24T11:42:39.467Z,5228.00
2023-11-24T11:43:39.488Z,5344.00
2023-11-24T11:44:39.425Z,6572.00
2023-11-24T11:45:39.477Z,7212.00
2023-11-24T11:46:39.450Z,7208.00
2023-11-24T11:47:39.396Z,6652.00
2023-11-24T11:48:39.493Z,5716.00
2023-11-24T11:49:39.345Z,4844.00
2023-11-24T11:50:39.349Z,4336.00
2023-11-24T11:51:39.442Z,4236.00
2023-11-24T11:52:44.392Z,4196.00
2023-11-24T11:53:39.297Z,4172.00
2023-11-24T11:54:39.464Z,4244.00
2023-11-24T11:55:39.287Z,4512.00
2023-11-24T11:56:39.254Z,4692.00
2023-11-24T11:57:39.421Z,4940.00
2023-11-24T11:58:39.243Z,5004.00
2023-11-24T11:59:39.234Z,5440.00
2023-11-24T12:00:39.383Z,4932.00
2023-11-24T12:01:39.297Z,5696.00
2023-11-24T12:02:39.312Z,5808.00
2023-11-24T12:03:44.483Z,5740.00
2023-11-24T12:04:39.210Z,5588.00
2023-11-24T12:05:39.169Z,5836.00
2023-11-24T12:06:39.352Z,5068.00
2023-11-24T12:07:41.174Z,4628.00
2023-11-24T12:08:39.150Z,4732.00
2023-11-24T12:09:39.156Z,5204.00
2023-11-24T12:10:39.099Z,5264.00
2023-11-24T12:11:39.102Z,5404.00
2023-11-24T12:12:39.087Z,5216.00
2023-11-24T12:13:40.630Z,5452.00
2023-11-24T12:14:44.097Z,5048.00
2023-11-24T12:15:39.106Z,4492.00
2023-11-24T12:16:39.106Z,4464.00
2023-11-24T12:17:39.045Z,4716.00
2023-11-24T12:18:39.017Z,4084.00
2023-11-24T12:19:41.256Z,3228.00
2023-11-24T12:20:38.990Z,2620.00
2023-11-24T12:21:38.992Z,2380.00
2023-11-24T12:22:39.053Z,2148.00
2023-11-24T12:23:38.990Z,1960.00
2023-11-24T12:24:38.978Z,2080.00
2023-11-24T12:25:43.954Z,2484.00
2023-11-24T12:26:38.937Z,3212.00
2023-11-24T12:27:38.918Z,4096.00
2023-11-24T12:28:38.914Z,4908.00
2023-11-24T12:29:38.903Z,4588.00
2023-11-24T12:30:38.910Z,5272.00
2023-11-24T12:31:40.709Z,7012.00
2023-11-24T12:32:38.881Z,5736.00
2023-11-24T12:33:38.848Z,4328.00
2023-11-24T12:34:38.853Z,3252.00
2023-11-24T12:35:38.840Z,2212.00
2023-11-24T12:36:43.901Z,1800.00
2023-11-24T12:37:41.093Z,1860.00
2023-11-24T12:38:38.835Z,1912.00
2023-11-24T12:39:38.780Z,1496.00
2023-11-24T12:40:38.796Z,1092.00
2023-11-24T12:41:38.756Z,1048.00
2023-11-24T12:42:38.743Z,1052.00
2023-11-24T12:43:38.759Z,1284.00
2023-11-24T12:44:38.718Z,1060.00
2023-11-24T12:45:38.749Z,680.00
2023-11-24T12:46:38.756Z,776.00
2023-11-24T12:47:43.786Z,924.00
2023-11-24T12:48:38.677Z,1336.00
2023-11-24T12:49:38.679Z,1352.00
2023-11-24T12:50:38.674Z,912.00
2023-11-24T12:51:38.642Z,512.00
2023-11-24T12:52:38.686Z,504.00
2023-11-24T12:53:38.633Z,420.00
2023-11-24T12:54:38.651Z,424.00
2023-11-24T12:55:38.610Z,448.00
2023-11-24T12:56:38.592Z,576.00
2023-11-24T12:57:38.580Z,884.00
2023-11-24T12:58:43.619Z,664.00
2023-11-24T12:59:38.570Z,940.00
2023-11-24T13:00:38.547Z,716.00
2023-11-24T13:01:38.549Z,572.00
2023-11-24T13:02:38.538Z,456.00
2023-11-24T13:03:38.561Z,372.00
2023-11-24T13:04:38.621Z,372.00
2023-11-24T13:05:38.489Z,416.00
2023-11-24T13:06:38.477Z,440.00
2023-11-24T13:07:38.529Z,468.00
2023-11-24T13:08:38.460Z,532.00
2023-11-24T13:09:43.515Z,612.00
2023-11-24T13:10:38.461Z,708.00
2023-11-24T13:11:38.451Z,1296.00
2023-11-24T13:12:38.430Z,1844.00
2023-11-24T13:13:38.399Z,1392.00
2023-11-24T13:14:38.454Z,1176.00
2023-11-24T13:15:38.387Z,1708.00
2023-11-24T13:16:38.508Z,2092.00
2023-11-24T13:17:38.419Z,2400.00
2023-11-24T13:18:38.355Z,2364.00
2023-11-24T13:19:38.351Z,2168.00
2023-11-24T13:20:43.344Z,1092.00
2023-11-24T13:21:38.311Z,1216.00
2023-11-24T13:22:38.341Z,1596.00
2023-11-24T13:23:38.343Z,1348.00
2023-11-24T13:24:38.417Z,1060.00
2023-11-24T13:25:38.392Z,1224.00
2023-11-24T13:26:38.258Z,1020.00
2023-11-24T13:27:38.289Z,776.00
2023-11-24T13:28:38.333Z,864.00
2023-11-24T13:29:38.218Z,796.00
2023-11-24T13:30:38.208Z,700.00
2023-11-24T13:31:43.223Z,772.00
2023-11-24T13:32:38.239Z,940.00
2023-11-24T13:33:38.182Z,980.00
2023-11-24T13:34:38.306Z,936.00
2023-11-24T13:35:38.151Z,1024.00
2023-11-24T13:36:38.142Z,1260.00
2023-11-24T13:37:38.171Z,1500.00
2023-11-24T13:38:38.135Z,1552.00
2023-11-24T13:39:38.106Z,1504.00
2023-11-24T13:40:38.155Z,1372.00
2023-11-24T13:41:38.114Z,1576.00
2023-11-24T13:42:43.398Z,1928.00
2023-11-24T13:43:38.092Z,2232.00
2023-11-24T13:44:38.088Z,2556.00
2023-11-24T13:45:38.053Z,2752.00
2023-11-24T13:46:38.145Z,2564.00
2023-11-24T13:47:38.033Z,2664.00
2023-11-24T13:48:38.011Z,2500.00
2023-11-24T13:49:38.004Z,2388.00
2023-11-24T13:50:37.992Z,2224.00
2023-11-24T13:51:38.020Z,2244.00
2023-11-24T13:52:38.008Z,2576.00
2023-11-24T13:53:42.974Z,2960.00
2023-11-24T13:54:37.947Z,3364.00
2023-11-24T13:55:37.935Z,3080.00
2023-11-24T13:56:37.928Z,2844.00
2023-11-24T13:57:37.948Z,2356.00
2023-11-24T13:58:37.905Z,1868.00
2023-11-24T13:59:37.888Z,1756.00
2023-11-24T14:00:37.880Z,1720.00
2023-11-24T14:01:38.008Z,2448.00
2023-11-24T14:02:38.111Z,2636.00
2023-11-24T14:03:38.021Z,2660.00
2023-11-24T14:04:42.953Z,3132.00
2023-11-24T14:05:37.826Z,2776.00
2023-11-24T14:06:37.826Z,2172.00
2023-11-24T14:07:37.828Z,1804.00
2023-11-24T14:08:37.790Z,1620.00
2023-11-24T14:09:37.773Z,2196.00
2023-11-24T14:10:37.804Z,1784.00
2023-11-24T14:11:37.763Z,1876.00
2023-11-24T14:12:37.763Z,1720.00
2023-11-24T14:13:37.788Z,1996.00
2023-11-24T14:14:37.745Z,2084.00
2023-11-24T14:15:44.547Z,1500.00
2023-11-24T14:16:37.751Z,1360.00
2023-11-24T14:17:37.716Z,1224.00
2023-11-24T14:18:37.673Z,1104.00
2023-11-24T14:19:37.665Z,1192.00
2023-11-24T14:20:37.649Z,1064.00
2023-11-24T14:21:37.653Z,928.00
2023-11-24T14:22:37.627Z,936.00
2023-11-24T14:23:37.626Z,880.00
2023-11-24T14:24:37.621Z,848.00
2023-11-24T14:25:37.592Z,864.00
2023-11-24T14:26:42.605Z,844.00
2023-11-24T14:27:37.586Z,812.00
2023-11-24T14:28:37.631Z,804.00
2023-11-24T14:29:37.593Z,792.00
2023-11-24T14:30:37.539Z,764.00
2023-11-24T14:31:37.576Z,756.00
2023-11-24T14:32:37.656Z,740.00
2023-11-24T14:33:37.558Z,732.00
2023-11-24T14:34:37.534Z,724.00
2023-11-24T14:35:37.481Z,696.00
2023-11-24T14:36:37.478Z,688.00
2023-11-24T14:37:42.496Z,684.00
2023-11-24T14:38:37.459Z,696.00
2023-11-24T14:39:37.488Z,720.00
2023-11-24T14:40:37.480Z,744.00
2023-11-24T14:41:37.433Z,800.00
2023-11-24T14:42:37.403Z,828.00
2023-11-24T14:43:37.454Z,816.00
2023-11-24T14:44:37.380Z,796.00
2023-11-24T14:45:37.397Z,668.00
2023-11-24T14:46:37.450Z,664.00
2023-11-24T14:47:37.388Z,644.00
2023-11-24T14:48:42.388Z,632.00
2023-11-24T14:49:37.354Z,616.00
2023-11-24T14:50:37.325Z,600.00
2023-11-24T14:51:37.333Z,596.00
2023-11-24T14:52:37.366Z,584.00
2023-11-24T14:53:37.280Z,584.00
2023-11-24T14:54:37.276Z,580.00
2023-11-24T14:55:37.258Z,548.00
2023-11-24T14:56:37.247Z,540.00
2023-11-24T14:57:37.285Z,540.00
2023-11-24T14:58:37.230Z,508.00
2023-11-24T14:59:42.234Z,496.00
2023-11-24T15:00:37.199Z,480.00
2023-11-24T15:01:37.341Z,468.00
2023-11-24T15:02:37.297Z,460.00
2023-11-24T15:03:37.195Z,448.00
2023-11-24T15:04:37.339Z,436.00
2023-11-24T15:05:37.151Z,428.00
2023-11-24T15:06:37.159Z,416.00
2023-11-24T15:07:37.125Z,404.00
2023-11-24T15:08:37.116Z,404.00
2023-11-24T15:09:37.150Z,424.00
2023-11-24T15:10:42.118Z,416.00
2023-11-24T15:11:37.087Z,384.00
2023-11-24T15:12:37.071Z,396.00
2023-11-24T15:13:37.069Z,364.00
2023-11-24T15:14:37.049Z,332.00
2023-11-24T15:15:37.084Z,336.00
2023-11-24T15:16:37.113Z,308.00
2023-11-24T15:17:37.174Z,300.00
2023-11-24T15:18:37.014Z,288.00
2023-11-24T15:19:37.007Z,276.00
2023-11-24T15:20:36.990Z,268.00
2023-11-24T15:21:42.047Z,256.00
2023-11-24T15:22:36.995Z,240.00
2023-11-24T15:23:36.955Z,228.00
2023-11-24T15:24:36.973Z,216.00
2023-11-24T15:25:37.037Z,204.00
2023-11-24T15:26:36.942Z,192.00
2023-11-24T15:27:36.910Z,184.00
2023-11-24T15:28:36.944Z,176.00
2023-11-24T15:29:37.070Z,160.00
2023-11-24T15:30:36.908Z,156.00
2023-11-24T15:31:36.952Z,140.00
2023-11-24T15:32:41.915Z,132.00
2023-11-24T15:33:36.844Z,116.00
2023-11-24T15:34:36.990Z,112.00
2023-11-24T15:35:36.827Z,104.00
2023-11-24T15:36:36.802Z,96.00
2023-11-24T15:37:36.792Z,88.00
2023-11-24T15:38:36.835Z,80.00
2023-11-24T15:39:36.776Z,72.00
2023-11-24T15:40:36.759Z,68.00
2023-11-24T15:41:36.748Z,60.00
2023-11-24T15:42:36.748Z,52.00
2023-11-24T15:43:41.761Z,48.00
2023-11-24T15:44:36.749Z,44.00
2023-11-24T15:45:36.700Z,36.00
2023-11-24T15:46:36.755Z,32.00
2023-11-24T15:47:39.284Z,28.00
2023-11-24T15:48:36.727Z,24.00
2023-11-24T15:49:36.686Z,20.00
2023-11-24T15:50:36.688Z,20.00
2023-11-24T15:51:36.637Z,16.00
2023-11-24T15:52:36.628Z,16.00
2023-11-24T15:53:36.619Z,12.00
2023-11-24T15:54:41.966Z,12.00
2023-11-24T15:55:36.595Z,12.00
2023-11-24T15:56:36.637Z,8.00
2023-11-24T15:57:36.570Z,8.00
2023-11-24T15:58:36.573Z,4.00
2023-11-24T15:59:38.145Z,4.00
2023-11-24T16:00:36.538Z,4.00
2023-11-24T16:01:36.596Z,0.00
2023-11-24T16:02:36.618Z,4.00
2023-11-24T16:03:36.581Z,0.00
2023-11-24T16:04:36.683Z,4.00
2023-11-24T16:05:41.506Z,4.00
2023-11-24T16:06:36.474Z,0.00
2023-11-24T16:07:36.471Z,0.00
2023-11-24T16:08:36.468Z,0.00
2023-11-24T16:09:36.434Z,0.00
2023-11-24T16:10:36.488Z,0.00
2023-11-24T16:11:36.414Z,0.00
2023-11-24T16:12:36.414Z,0.00
2023-11-24T16:13:36.399Z,0.00
2023-11-24T16:14:36.410Z,0.00
2023-11-24T16:15:36.370Z,0.00
2023-11-24T16:16:44.098Z,0.00
2023-11-24T16:17:36.396Z,0.00
2023-11-24T16:18:36.390Z,0.00
2023-11-24T16:19:36.325Z,0.00
2023-11-24T16:20:36.361Z,0.00
2023-11-24T16:21:36.318Z,0.00
2023-11-24T16:22:36.335Z,0.00
2023-11-24T16:23:36.284Z,0.00
2023-11-24T16:24:36.281Z,0.00
2023-11-24T16:25:36.276Z,0.00
2023-11-24T16:26:36.283Z,0.00
2023-11-24T16:27:42.380Z,0.00
2023-11-24T16:28:36.238Z,0.00
2023-11-24T16:29:36.240Z,0.00
2023-11-24T16:30:36.216Z,0.00
2023-11-24T16:31:36.300Z,0.00
2023-11-24T16:32:36.237Z,0.00
2023-11-24T16:33:36.177Z,0.00
2023-11-24T16:34:36.174Z,0.00
2023-11-24T16:35:36.238Z,0.00
2023-11-24T16:36:36.178Z,0.00
2023-11-24T16:37:36.232Z,0.00
2023-11-24T16:38:41.271Z,0.00
2023-11-24T16:39:36.129Z,0.00
2023-11-24T16:40:36.185Z,0.00
2023-11-24T16:41:36.125Z,0.00
2023-11-24T16:42:36.080Z,0.00
2023-11-24T16:43:36.071Z,0.00
2023-11-24T16:44:36.068Z,0.00
2023-11-24T16:45:36.050Z,0.00
2023-11-24T16:46:36.094Z,0.00
2023-11-24T16:47:36.083Z,0.00
2023-11-24T16:48:36.005Z,0.00
2023-11-24T16:49:41.023Z,0.00
2023-11-24T16:50:36.008Z,0.00
2023-11-24T16:51:36.020Z,0.00
2023-11-24T16:52:36.013Z,0.00
2023-11-24T16:53:35.954Z,0.00
2023-11-24T16:54:35.952Z,0.00
2023-11-24T16:55:35.951Z,0.00
2023-11-24T16:56:35.968Z,0.00
2023-11-24T16:57:35.905Z,0.00
2023-11-24T16:58:35.973Z,0.00
2023-11-24T16:59:35.897Z,0.00
2023-11-24T17:00:40.911Z,0.00
2023-11-24T17:01:35.935Z,0.00
2023-11-24T17:02:36.138Z,0.00
2023-11-24T17:03:35.862Z,0.00
2023-11-24T17:04:35.872Z,0.00
2023-11-24T17:05:35.825Z,0.00
2023-11-24T17:06:35.833Z,0.00
2023-11-24T17:07:35.800Z,0.00
2023-11-24T17:08:35.834Z,0.00
2023-11-24T17:09:35.807Z,0.00
2023-11-24T17:10:35.786Z,0.00
2023-11-24T17:11:40.774Z,0.00
2023-11-24T17:12:35.743Z,0.00
2023-11-24T17:13:35.741Z,0.00
2023-11-24T17:14:35.760Z,0.00
2023-11-24T17:15:35.713Z,0.00
2023-11-24T17:16:35.752Z,0.00
2023-11-24T17:17:35.704Z,0.00
2023-11-24T17:18:35.700Z,0.00
2023-11-24T17:19:35.724Z,0.00
2023-11-24T17:20:35.688Z,0.00
2023-11-24T17:21:35.681Z,0.00
2023-11-24T17:22:40.715Z,0.00
2023-11-24T17:23:35.634Z,0.00
2023-11-24T17:24:35.640Z,0.00
2023-11-24T17:25:37.411Z,0.00
2023-11-24T17:26:35.611Z,0.00
2023-11-24T17:27:35.590Z,0.00
2023-11-24T17:28:35.640Z,0.00
2023-11-24T17:29:35.560Z,0.00
2023-11-24T17:30:35.545Z,0.00
2023-11-24T17:31:35.582Z,0.00
2023-11-24T17:32:35.592Z,0.00
2023-11-24T17:33:40.812Z,0.00
2023-11-24T17:34:35.603Z,0.00
2023-11-24T17:35:35.492Z,0.00
2023-11-24T17:36:35.480Z,0.00
2023-11-24T17:37:35.479Z,0.00
2023-11-24T17:38:35.477Z,0.00
2023-11-24T17:39:35.452Z,0.00
2023-11-24T17:40:35.462Z,0.00
2023-11-24T17:41:35.429Z,0.00
2023-11-24T17:42:35.457Z,0.00
2023-11-24T17:43:35.468Z,0.00
2023-11-24T17:44:40.464Z,0.00
2023-11-24T17:45:35.382Z,0.00
2023-11-24T17:46:38.722Z,0.00
2023-11-24T17:47:35.460Z,0.00
2023-11-24T17:48:35.359Z,0.00
2023-11-24T17:49:35.341Z,0.00
2023-11-24T17:50:35.351Z,0.00
2023-11-24T17:51:35.339Z,0.00
2023-11-24T17:52:35.312Z,0.00
2023-11-24T17:53:35.291Z,0.00
2023-11-24T17:54:35.279Z,0.00
2023-11-24T17:55:40.314Z,0.00
2023-11-24T17:56:35.289Z,0.00
2023-11-24T17:57:35.254Z,0.00
2023-11-24T17:58:35.249Z,0.00
2023-11-24T17:59:35.225Z,0.00
2023-11-24T18:00:35.258Z,0.00
2023-11-24T18:01:35.429Z,0.00
2023-11-24T18:02:35.288Z,0.00
2023-11-24T18:03:35.210Z,0.00
2023-11-24T18:04:35.212Z,0.00
2023-11-24T18:05:35.169Z,0.00
2023-11-24T18:06:40.190Z,0.00
2023-11-24T18:07:35.139Z,0.00
2023-11-24T18:08:35.220Z,0.00
2023-11-24T18:09:35.114Z,0.00
2023-11-24T18:10:35.164Z,0.00
2023-11-24T18:11:35.127Z,0.00
2023-11-24T18:12:35.092Z,0.00
2023-11-24T18:13:35.104Z,0.00
2023-11-24T18:14:35.088Z,0.00
2023-11-24T18:15:35.058Z,0.00
2023-11-24T18:16:35.103Z,0.00
2023-11-24T18:17:40.067Z,0.00
2023-11-24T18:18:35.024Z,0.00
2023-11-24T18:19:35.013Z,0.00
2023-11-24T18:20:35.033Z,0.00
2023-11-24T18:21:34.982Z,0.00
2023-11-24T18:22:34.991Z,0.00
2023-11-24T18:23:34.962Z,0.00
2023-11-24T18:24:34.956Z,0.00
2023-11-24T18:25:37.678Z,0.00
2023-11-24T18:26:34.940Z,0.00
2023-11-24T18:27:34.944Z,0.00
2023-11-24T18:28:39.931Z,0.00
2023-11-24T18:29:34.902Z,0.00